Terminal Aerodrome Forecast
Issued by NWS Memphis, TN

Home | Current Version | Previous Version | Text Only | Print | Product List | Glossary On
Versions: 1 2 3 4 5 6 7 8 9 10 11 12 13 14 15 16 17 18 19 20 21 22 23 24 25 26 27 28 29 30 31 32
000
FTUS44 KMEG 170258 AAA
TAFMEM
TAF AMD
KMEM 170258Z 1703/1724 18008KT P6SM FEW035 FEW250
     FM171300 22011KT P6SM VCSH FEW015 BKN035 OVC150
     FM171800 23011G17KT P6SM VCTS SCT035CB BKN050
      TEMPO 1718/1722 6SM SHRA BKN035=

USA.gov is the U.S. government's official web portal to all federal, state and local government web resources and services.